createdAt,value
2022-11-16T00:01:57.092Z,90.22
2022-11-16T00:04:24.943Z,90.33
2022-11-16T00:06:52.716Z,90.20
2022-11-16T00:09:28.649Z,90.16
2022-11-16T00:11:58.241Z,90.39
2022-11-16T00:14:30.400Z,90.43
2022-11-16T00:16:58.973Z,90.27
2022-11-16T00:19:27.573Z,90.72
2022-11-16T00:21:55.608Z,90.63
2022-11-16T00:24:24.599Z,90.60
2022-11-16T00:26:55.383Z,90.70
2022-11-16T00:29:25.152Z,90.71
2022-11-16T00:31:55.400Z,90.80
2022-11-16T00:34:23.748Z,90.73
2022-11-16T00:36:51.666Z,90.85
2022-11-16T00:39:20.845Z,91.08
2022-11-16T00:41:49.423Z,91.05
2022-11-16T00:44:17.925Z,91.13
2022-11-16T00:46:45.650Z,91.07
2022-11-16T00:49:14.717Z,91.26
2022-11-16T00:51:42.384Z,91.11
2022-11-16T00:54:10.312Z,91.17
2022-11-16T00:56:38.467Z,91.33
2022-11-16T00:59:06.212Z,91.43
2022-11-16T01:01:34.389Z,91.49
2022-11-16T01:04:02.352Z,91.58
2022-11-16T01:06:31.446Z,91.44
2022-11-16T01:08:59.121Z,91.60
2022-11-16T01:11:49.828Z,91.26
2022-11-16T01:14:17.803Z,91.67
2022-11-16T01:16:45.685Z,91.30
2022-11-16T01:19:13.398Z,91.76
2022-11-16T01:21:42.532Z,91.39
2022-11-16T01:24:10.263Z,91.67
2022-11-16T01:26:37.967Z,91.79
2022-11-16T01:29:05.634Z,91.91
2022-11-16T01:31:33.409Z,91.87
2022-11-16T01:34:01.163Z,92.07
2022-11-16T01:36:28.958Z,91.98
2022-11-16T01:38:58.257Z,92.29
2022-11-16T01:41:27.302Z,92.20
2022-11-16T01:43:57.750Z,92.10
2022-11-16T01:46:26.690Z,92.17
2022-11-16T01:49:12.976Z,91.96
2022-11-16T01:51:43.060Z,92.13
2022-11-16T01:54:14.858Z,92.36
2022-11-16T01:56:45.324Z,92.51
2022-11-16T01:59:14.285Z,92.35
2022-11-16T02:01:42.163Z,92.35
2022-11-16T02:04:11.534Z,92.01
2022-11-16T02:06:59.961Z,92.18
2022-11-16T02:09:55.155Z,92.34
2022-11-16T02:12:48.819Z,92.65
2022-11-16T02:15:26.026Z,92.72
2022-11-16T02:18:05.774Z,92.76
2022-11-16T02:20:55.853Z,92.75
2022-11-16T02:23:52.290Z,92.91
2022-11-16T02:26:37.394Z,92.81
2022-11-16T02:29:21.723Z,93.13
2022-11-16T02:31:55.452Z,93.26
2022-11-16T02:34:27.612Z,93.06
2022-11-16T02:36:58.224Z,93.26
2022-11-16T02:39:29.472Z,93.26
2022-11-16T02:41:58.732Z,93.18
2022-11-16T02:44:31.999Z,93.28
2022-11-16T02:47:03.069Z,93.36
2022-11-16T02:49:35.071Z,93.37
2022-11-16T02:52:03.684Z,93.47
2022-11-16T02:54:31.408Z,93.23
2022-11-16T02:57:28.360Z,93.25
2022-11-16T02:59:59.957Z,93.44
2022-11-16T03:02:35.086Z,93.47
2022-11-16T03:05:06.314Z,93.48
2022-11-16T03:07:37.923Z,93.73
2022-11-16T03:10:06.337Z,93.46
2022-11-16T03:12:35.866Z,93.59
2022-11-16T03:15:08.156Z,93.59
2022-11-16T03:17:42.651Z,93.67
2022-11-16T03:20:14.668Z,93.51
2022-11-16T03:22:45.222Z,93.60
2022-11-16T03:25:15.047Z,93.60
2022-11-16T03:27:49.440Z,93.66
2022-11-16T03:30:23.895Z,93.85
2022-11-16T03:32:57.545Z,93.72
2022-11-16T03:35:30.161Z,93.61
2022-11-16T03:38:01.011Z,93.70
2022-11-16T03:40:31.421Z,93.52
2022-11-16T03:43:02.684Z,93.71
2022-11-16T03:45:32.771Z,93.36
2022-11-16T03:48:01.692Z,93.56
2022-11-16T03:50:29.763Z,93.70
2022-11-16T03:52:57.462Z,93.77
2022-11-16T03:55:25.144Z,93.65
2022-11-16T03:57:52.867Z,93.91
2022-11-16T04:00:20.790Z,93.85
2022-11-16T04:02:49.890Z,93.82
2022-11-16T04:05:35.430Z,93.81
2022-11-16T04:08:20.740Z,93.86
2022-11-16T04:11:06.317Z,94.15
2022-11-16T04:13:53.137Z,94.18
2022-11-16T04:16:38.717Z,93.99
2022-11-16T04:19:26.532Z,94.05
2022-11-16T04:22:15.963Z,94.13
2022-11-16T04:24:46.753Z,94.29
2022-11-16T04:27:33.880Z,94.14
2022-11-16T04:30:03.591Z,94.06
2022-11-16T04:32:48.695Z,94.04
2022-11-16T04:35:43.785Z,94.03
2022-11-16T04:38:11.560Z,94.28
2022-11-16T04:40:39.353Z,94.13
2022-11-16T04:43:06.682Z,94.07
2022-11-16T04:45:52.432Z,94.00
2022-11-16T04:48:21.314Z,94.01
2022-11-16T04:50:50.360Z,94.21
2022-11-16T04:53:18.085Z,94.29
2022-11-16T04:55:45.803Z,94.14
2022-11-16T04:58:13.622Z,94.16
2022-11-16T05:00:41.354Z,93.92
2022-11-16T05:03:09.114Z,93.98
2022-11-16T05:05:37.725Z,93.83
2022-11-16T05:08:08.732Z,94.21
2022-11-16T05:10:37.012Z,93.93
2022-11-16T05:13:04.977Z,93.69
2022-11-16T05:15:32.736Z,93.42
2022-11-16T05:18:00.557Z,93.55
2022-11-16T05:20:45.626Z,93.55
2022-11-16T05:23:28.573Z,93.42
2022-11-16T05:25:56.306Z,93.61
2022-11-16T05:28:24.056Z,93.34
2022-11-16T05:30:51.733Z,93.04
2022-11-16T05:33:19.503Z,93.17
2022-11-16T05:35:47.281Z,93.45
2022-11-16T05:38:16.370Z,93.33
2022-11-16T05:40:44.050Z,93.48
2022-11-16T05:43:12.013Z,92.93
2022-11-16T05:45:39.748Z,92.76
2022-11-16T05:48:07.446Z,93.06
2022-11-16T05:50:39.836Z,92.75
2022-11-16T05:53:10.165Z,92.43
2022-11-16T05:55:39.288Z,92.25
2022-11-16T05:58:06.974Z,92.07
2022-11-16T06:00:34.651Z,92.06
2022-11-16T06:03:02.444Z,91.68
2022-11-16T06:05:30.183Z,92.05
2022-11-16T06:07:57.885Z,91.82
2022-11-16T06:10:25.617Z,91.97
2022-11-16T06:12:54.817Z,91.91
2022-11-16T06:15:22.531Z,91.70
2022-11-16T06:17:50.201Z,91.70
2022-11-16T06:20:18.402Z,92.01
2022-11-16T06:22:46.416Z,91.88
2022-11-16T06:25:14.151Z,92.13
2022-11-16T06:27:41.846Z,92.17
2022-11-16T06:30:11.526Z,92.15
2022-11-16T06:32:39.996Z,92.12
2022-11-16T06:35:08.479Z,91.98
2022-11-16T06:37:36.146Z,92.07
2022-11-16T06:40:04.290Z,91.81
2022-11-16T06:42:31.972Z,91.88
2022-11-16T06:44:59.662Z,91.84
2022-11-16T06:47:28.773Z,91.84
2022-11-16T06:49:56.477Z,91.81
2022-11-16T06:52:24.180Z,91.85
2022-11-16T06:54:51.840Z,91.67
2022-11-16T06:57:19.563Z,92.08
2022-11-16T06:59:47.229Z,91.85
2022-11-16T07:02:15.023Z,91.89
2022-11-16T07:04:44.398Z,91.72
2022-11-16T07:07:12.178Z,91.48
2022-11-16T07:09:39.892Z,91.28
2022-11-16T07:12:08.061Z,90.61
2022-11-16T07:14:38.267Z,90.39
2022-11-16T07:17:09.540Z,90.03
2022-11-16T07:19:37.746Z,89.95
2022-11-16T07:22:07.150Z,89.77
2022-11-16T07:24:34.860Z,89.77
2022-11-16T07:27:02.641Z,89.61
2022-11-16T07:29:31.272Z,89.83
2022-11-16T07:31:58.976Z,89.82
2022-11-16T07:34:27.668Z,89.95
2022-11-16T07:36:55.350Z,89.72
2022-11-16T07:39:24.409Z,89.48
2022-11-16T07:41:53.567Z,89.72
2022-11-16T07:44:21.353Z,89.93
2022-11-16T07:46:49.167Z,90.09
2022-11-16T07:49:18.896Z,89.66
2022-11-16T07:51:47.402Z,89.01
2022-11-16T07:54:15.966Z,88.13
2022-11-16T07:56:45.129Z,87.22
2022-11-16T07:59:12.881Z,87.09
2022-11-16T08:01:40.630Z,87.36
2022-11-16T08:04:08.458Z,86.56
2022-11-16T08:06:36.146Z,86.26
2022-11-16T08:09:04.023Z,86.00
2022-11-16T08:11:31.742Z,85.46
2022-11-16T08:14:00.829Z,85.43
2022-11-16T08:16:28.681Z,85.39
2022-11-16T08:18:56.380Z,85.23
2022-11-16T08:21:24.093Z,85.07
2022-11-16T08:23:57.893Z,84.87
2022-11-16T08:26:26.329Z,84.77
2022-11-16T08:28:56.393Z,84.54
2022-11-16T08:31:27.388Z,84.35
2022-11-16T08:33:56.448Z,84.68
2022-11-16T08:36:24.286Z,84.13
2022-11-16T08:38:53.171Z,83.63
2022-11-16T08:41:21.509Z,83.78
2022-11-16T08:43:50.645Z,83.97
2022-11-16T08:46:18.643Z,83.59
2022-11-16T08:48:49.633Z,83.60
2022-11-16T08:51:20.154Z,83.17
2022-11-16T08:53:49.358Z,82.25
2022-11-16T08:56:18.760Z,81.46
2022-11-16T08:58:47.682Z,81.97
2022-11-16T09:01:17.724Z,81.56
2022-11-16T09:03:46.928Z,81.54
2022-11-16T09:06:15.805Z,80.90
2022-11-16T09:08:45.230Z,80.34
2022-11-16T09:11:16.832Z,79.96
2022-11-16T09:13:44.648Z,79.02
2022-11-16T09:16:15.776Z,78.63
2022-11-16T09:18:44.048Z,78.67
2022-11-16T09:21:13.425Z,78.81
2022-11-16T09:23:41.149Z,78.28
2022-11-16T09:26:08.906Z,77.54
2022-11-16T09:28:37.042Z,77.23
2022-11-16T09:31:06.083Z,77.91
2022-11-16T09:33:35.167Z,78.28
2022-11-16T09:36:06.854Z,78.31
2022-11-16T09:38:55.793Z,78.63
2022-11-16T09:41:49.125Z,77.80
2022-11-16T09:44:38.713Z,77.40
2022-11-16T09:47:12.230Z,77.62
2022-11-16T09:49:44.595Z,77.19
2022-11-16T09:52:25.071Z,76.75
2022-11-16T09:54:55.933Z,76.23
2022-11-16T09:57:30.371Z,75.52
2022-11-16T10:00:01.985Z,74.58
2022-11-16T10:02:35.520Z,74.55
2022-11-16T10:05:10.613Z,74.46
2022-11-16T10:07:43.062Z,73.84
2022-11-16T10:10:14.839Z,73.06
2022-11-16T10:12:49.803Z,72.60
2022-11-16T10:15:41.430Z,72.34
2022-11-16T10:18:20.950Z,71.07
2022-11-16T10:21:11.335Z,72.46
2022-11-16T10:23:51.478Z,72.38
2022-11-16T10:26:28.338Z,72.10
2022-11-16T10:29:15.343Z,71.60
2022-11-16T10:32:03.296Z,71.02
2022-11-16T10:34:39.641Z,70.34
2022-11-16T10:37:08.794Z,70.97
2022-11-16T10:39:40.894Z,70.72
2022-11-16T10:42:17.490Z,70.50
2022-11-16T10:44:48.566Z,69.63
2022-11-16T10:47:21.862Z,69.62
2022-11-16T10:49:57.026Z,69.15
2022-11-16T10:52:25.174Z,68.83
2022-11-16T10:54:53.392Z,68.19
2022-11-16T10:57:24.627Z,68.19
2022-11-16T10:59:55.749Z,67.80
2022-11-16T11:02:30.998Z,67.76
2022-11-16T11:05:17.785Z,67.17
2022-11-16T11:07:54.089Z,67.60
2022-11-16T11:10:31.463Z,66.87
2022-11-16T11:13:21.818Z,65.90
2022-11-16T11:15:51.307Z,66.52
2022-11-16T11:18:26.065Z,66.36
2022-11-16T11:21:07.615Z,64.90
2022-11-16T11:24:10.583Z,65.10
2022-11-16T11:26:43.202Z,65.32
2022-11-16T11:29:24.746Z,65.24
2022-11-16T11:31:55.130Z,65.46
2022-11-16T11:34:25.765Z,65.41
2022-11-16T11:36:56.998Z,65.43
2022-11-16T11:39:31.716Z,65.06
2022-11-16T11:42:06.210Z,64.13
2022-11-16T11:44:44.584Z,63.68
2022-11-16T11:47:56.329Z,64.48
2022-11-16T11:50:20.079Z,64.13
2022-11-16T11:53:03.376Z,64.38
2022-11-16T11:55:31.142Z,64.11
2022-11-16T11:58:01.640Z,64.13
2022-11-16T12:00:40.619Z,63.55
2022-11-16T12:03:32.507Z,63.93
2022-11-16T12:06:23.848Z,63.49
2022-11-16T12:09:06.969Z,63.28
2022-11-16T12:11:49.814Z,63.86
2022-11-16T12:14:30.411Z,63.17
2022-11-16T12:17:09.305Z,63.01
2022-11-16T12:20:09.148Z,62.86
2022-11-16T12:23:04.415Z,62.47
2022-11-16T12:25:39.397Z,62.47
2022-11-16T12:28:24.401Z,61.67
2022-11-16T12:31:05.527Z,61.77
2022-11-16T12:33:45.231Z,62.05
2022-11-16T12:36:25.747Z,62.09
2022-11-16T12:39:02.501Z,62.29
2022-11-16T12:41:53.748Z,62.21
2022-11-16T12:44:32.880Z,62.88
2022-11-16T12:47:08.110Z,63.03
2022-11-16T12:50:08.212Z,62.30
2022-11-16T12:52:53.581Z,62.38
2022-11-16T12:55:28.027Z,62.05
2022-11-16T12:58:08.508Z,62.58
2022-11-16T13:00:48.569Z,62.61
2022-11-16T13:03:22.454Z,62.32
2022-11-16T13:06:00.314Z,62.26
2022-11-16T13:08:43.003Z,62.47
2022-11-16T13:11:12.966Z,62.08
2022-11-16T13:13:45.723Z,62.17
2022-11-16T13:16:17.372Z,61.46
2022-11-16T13:18:45.498Z,61.32
2022-11-16T13:21:25.935Z,61.46
2022-11-16T13:24:06.608Z,62.02
2022-11-16T13:26:40.645Z,62.15
2022-11-16T13:29:19.365Z,61.98
2022-11-16T13:31:54.611Z,62.14
2022-11-16T13:34:26.170Z,62.62
2022-11-16T13:36:55.289Z,62.77
2022-11-16T13:40:01.904Z,62.28
2022-11-16T13:42:30.530Z,62.10
2022-11-16T13:45:07.877Z,62.05
2022-11-16T13:47:37.641Z,62.10
2022-11-16T13:50:08.086Z,62.19
2022-11-16T13:53:46.350Z,62.11
2022-11-16T13:55:42.159Z,62.55
2022-11-16T13:58:19.885Z,61.65
2022-11-16T14:00:58.294Z,62.27
2022-11-16T14:03:39.457Z,62.38
2022-11-16T14:06:23.560Z,62.40
2022-11-16T14:08:53.926Z,61.54
2022-11-16T14:11:31.146Z,61.85
2022-11-16T14:14:01.258Z,62.31
2022-11-16T14:16:47.313Z,62.76
2022-11-16T14:19:55.078Z,62.17
2022-11-16T14:22:38.835Z,62.80
2022-11-16T14:25:21.141Z,62.80
2022-11-16T14:27:55.307Z,62.70
2022-11-16T14:30:28.629Z,62.19
2022-11-16T14:32:58.226Z,61.53
2022-11-16T14:35:33.825Z,61.83
2022-11-16T14:38:04.254Z,61.77
2022-11-16T14:40:46.353Z,62.28
2022-11-16T14:43:21.634Z,62.11
2022-11-16T14:45:54.198Z,62.37
2022-11-16T14:48:25.745Z,62.40
2022-11-16T14:51:04.957Z,62.54
2022-11-16T14:53:35.461Z,62.83
2022-11-16T14:56:12.904Z,62.83
2022-11-16T14:58:41.081Z,63.23
2022-11-16T15:01:15.422Z,63.58
2022-11-16T15:03:53.468Z,63.04
2022-11-16T15:06:21.795Z,62.98
2022-11-16T15:08:54.137Z,63.27
2022-11-16T15:11:48.146Z,63.46
2022-11-16T15:14:22.090Z,63.62
2022-11-16T15:16:52.120Z,63.34
2022-11-16T15:19:20.280Z,63.58
2022-11-16T15:21:55.258Z,64.13
2022-11-16T15:24:32.673Z,63.77
2022-11-16T15:27:13.373Z,63.87
2022-11-16T15:29:41.100Z,64.34
2022-11-16T15:32:16.544Z,64.84
2022-11-16T15:34:47.382Z,64.91
2022-11-16T15:37:15.301Z,65.25
2022-11-16T15:39:44.146Z,65.22
2022-11-16T15:42:15.705Z,65.95
2022-11-16T15:44:44.364Z,66.60
2022-11-16T15:47:14.009Z,66.55
2022-11-16T15:49:42.842Z,67.23
2022-11-16T15:52:11.203Z,66.25
2022-11-16T15:54:52.764Z,66.51
2022-11-16T15:57:24.021Z,66.67
2022-11-16T15:59:54.896Z,66.59
2022-11-16T16:02:24.609Z,66.66
2022-11-16T16:04:52.605Z,66.75
2022-11-16T16:07:38.545Z,66.83
2022-11-16T16:10:14.155Z,67.22
2022-11-16T16:12:51.287Z,67.44
2022-11-16T16:15:23.929Z,67.63
2022-11-16T16:17:52.898Z,67.74
2022-11-16T16:20:22.939Z,67.86
2022-11-16T16:22:51.129Z,67.85
2022-11-16T16:25:30.194Z,68.13
2022-11-16T16:27:59.290Z,68.59
2022-11-16T16:30:28.801Z,68.49
2022-11-16T16:32:56.958Z,68.76
2022-11-16T16:35:26.512Z,68.93
2022-11-16T16:37:58.704Z,68.97
2022-11-16T16:40:27.273Z,69.00
2022-11-16T16:42:56.364Z,69.35
2022-11-16T16:45:35.409Z,69.52
2022-11-16T16:48:03.381Z,69.81
2022-11-16T16:50:31.076Z,69.81
2022-11-16T16:52:58.863Z,69.91
2022-11-16T16:55:26.623Z,70.26
2022-11-16T16:57:56.602Z,70.46
2022-11-16T17:00:24.882Z,70.59
2022-11-16T17:02:54.311Z,70.64
2022-11-16T17:05:22.050Z,70.71
2022-11-16T17:07:49.747Z,71.17
2022-11-16T17:10:18.280Z,71.04
2022-11-16T17:12:49.903Z,71.37
2022-11-16T17:15:19.482Z,71.28
2022-11-16T17:17:47.563Z,71.74
2022-11-16T17:20:17.207Z,71.57
2022-11-16T17:22:45.902Z,72.01
2022-11-16T17:25:14.862Z,72.41
2022-11-16T17:27:42.567Z,72.68
2022-11-16T17:30:11.631Z,72.50
2022-11-16T17:32:39.291Z,72.70
2022-11-16T17:35:07.301Z,72.86
2022-11-16T17:37:36.403Z,72.97
2022-11-16T17:40:11.462Z,72.78
2022-11-16T17:42:39.187Z,73.11
2022-11-16T17:45:08.025Z,73.20
2022-11-16T17:47:36.137Z,73.23
2022-11-16T17:50:04.268Z,73.28
2022-11-16T17:52:31.985Z,73.46
2022-11-16T17:55:01.023Z,73.28
2022-11-16T17:57:28.879Z,73.48
2022-11-16T17:59:56.681Z,73.47
2022-11-16T18:02:24.381Z,73.93
2022-11-16T18:04:52.121Z,74.20
2022-11-16T18:07:19.947Z,74.03
2022-11-16T18:09:47.776Z,73.82
2022-11-16T18:12:16.892Z,74.31
2022-11-16T18:15:00.131Z,74.42
2022-11-16T18:17:32.491Z,74.31
2022-11-16T18:20:00.219Z,74.42
2022-11-16T18:22:27.946Z,74.72
2022-11-16T18:24:55.701Z,74.41
2022-11-16T18:27:24.728Z,74.80
2022-11-16T18:29:52.595Z,75.15
2022-11-16T18:32:22.816Z,74.93
2022-11-16T18:34:50.580Z,75.16
2022-11-16T18:37:18.247Z,75.33
2022-11-16T18:39:46.061Z,75.43
2022-11-16T18:42:13.863Z,75.42
2022-11-16T18:44:42.965Z,75.22
2022-11-16T18:47:10.663Z,75.17
2022-11-16T18:49:38.406Z,75.72
2022-11-16T18:52:06.171Z,75.94
2022-11-16T18:54:33.940Z,76.14
2022-11-16T18:57:01.689Z,76.04
2022-11-16T18:59:29.370Z,75.87
2022-11-16T19:01:58.457Z,75.90
2022-11-16T19:04:27.033Z,76.15
2022-11-16T19:06:54.753Z,76.30
2022-11-16T19:09:22.603Z,76.55
2022-11-16T19:11:51.636Z,76.79
2022-11-16T19:14:19.348Z,77.03
2022-11-16T19:16:54.050Z,76.84
2022-11-16T19:19:27.744Z,77.20
2022-11-16T19:21:56.905Z,77.23
2022-11-16T19:24:24.878Z,77.74
2022-11-16T19:26:53.078Z,77.49
2022-11-16T19:29:21.654Z,77.13
2022-11-16T19:31:49.427Z,77.43
2022-11-16T19:34:17.218Z,77.66
2022-11-16T19:36:46.386Z,77.49
2022-11-16T19:39:14.165Z,77.97
2022-11-16T19:41:41.914Z,77.95
2022-11-16T19:44:11.717Z,78.50
2022-11-16T19:46:39.968Z,78.25
2022-11-16T19:49:09.238Z,78.42
2022-11-16T19:51:37.172Z,78.71
2022-11-16T19:54:06.874Z,78.66
2022-11-16T19:56:34.587Z,78.52
2022-11-16T19:59:02.640Z,79.18
2022-11-16T20:01:30.389Z,79.13
2022-11-16T20:03:59.482Z,78.94
2022-11-16T20:06:29.385Z,78.83
2022-11-16T20:09:00.670Z,78.96
2022-11-16T20:11:31.618Z,78.65
2022-11-16T20:13:59.733Z,78.85
2022-11-16T20:16:35.409Z,78.54
2022-11-16T20:19:06.378Z,78.10
2022-11-16T20:21:36.116Z,78.16
2022-11-16T20:24:07.039Z,78.51
2022-11-16T20:26:37.945Z,78.32
2022-11-16T20:29:05.656Z,77.93
2022-11-16T20:31:34.941Z,78.27
2022-11-16T20:34:05.167Z,78.36
2022-11-16T20:36:34.618Z,77.82
2022-11-16T20:39:02.543Z,78.26
2022-11-16T20:41:33.571Z,78.02
2022-11-16T20:44:03.598Z,78.22
2022-11-16T20:46:33.049Z,78.19
2022-11-16T20:49:01.829Z,78.14
2022-11-16T20:51:30.564Z,77.92
2022-11-16T20:53:58.830Z,77.89
2022-11-16T20:56:28.114Z,78.29
2022-11-16T20:58:55.906Z,78.30
2022-11-16T21:01:28.748Z,78.93
2022-11-16T21:03:56.944Z,79.10
2022-11-16T21:06:24.779Z,79.81
2022-11-16T21:08:52.507Z,80.13
2022-11-16T21:11:22.612Z,80.19
2022-11-16T21:14:07.973Z,80.59
2022-11-16T21:16:37.898Z,80.52
2022-11-16T21:19:05.740Z,80.47
2022-11-16T21:21:33.874Z,80.74
2022-11-16T21:24:01.621Z,80.51
2022-11-16T21:26:30.983Z,80.58
2022-11-16T21:28:59.717Z,80.47
2022-11-16T21:31:29.811Z,80.32
2022-11-16T21:34:00.531Z,80.15
2022-11-16T21:36:30.078Z,80.21
2022-11-16T21:38:58.461Z,80.11
2022-11-16T21:41:27.231Z,80.43
2022-11-16T21:43:55.233Z,80.06
2022-11-16T21:46:24.773Z,80.15
2022-11-16T21:48:53.767Z,80.13
2022-11-16T21:51:24.816Z,80.13
2022-11-16T21:53:52.867Z,79.75
2022-11-16T21:56:21.822Z,79.77
2022-11-16T21:58:50.390Z,79.75
2022-11-16T22:01:18.225Z,79.81
2022-11-16T22:03:46.235Z,79.83
2022-11-16T22:06:38.591Z,79.34
2022-11-16T22:09:07.886Z,79.26
2022-11-16T22:11:35.611Z,79.09
2022-11-16T22:14:03.495Z,79.28
2022-11-16T22:16:31.215Z,79.12
2022-11-16T22:18:58.914Z,79.09
2022-11-16T22:21:26.648Z,79.14
2022-11-16T22:23:54.334Z,79.18
2022-11-16T22:26:23.692Z,78.93
2022-11-16T22:28:53.203Z,78.73
2022-11-16T22:31:20.987Z,78.96
2022-11-16T22:33:52.737Z,78.90
2022-11-16T22:36:20.509Z,78.54
2022-11-16T22:38:48.206Z,79.02
2022-11-16T22:41:16.042Z,78.62
2022-11-16T22:43:45.158Z,78.70
2022-11-16T22:46:12.884Z,78.67
2022-11-16T22:48:43.487Z,78.62
2022-11-16T22:51:21.599Z,78.68
2022-11-16T22:53:59.839Z,78.40
2022-11-16T22:56:28.628Z,78.23
2022-11-16T22:58:58.545Z,78.37
2022-11-16T23:01:26.522Z,78.22
2022-11-16T23:03:54.273Z,77.99
2022-11-16T23:06:21.984Z,77.98
2022-11-16T23:08:50.264Z,78.09
2022-11-16T23:11:36.958Z,77.96
2022-11-16T23:14:25.138Z,77.89
2022-11-16T23:16:53.480Z,77.91
2022-11-16T23:19:39.961Z,78.10
2022-11-16T23:22:26.966Z,78.29
2022-11-16T23:25:12.426Z,78.70
2022-11-16T23:27:44.205Z,78.89
2022-11-16T23:30:14.074Z,79.88
2022-11-16T23:32:42.249Z,80.44
2022-11-16T23:35:10.948Z,80.88
2022-11-16T23:37:50.926Z,81.77
2022-11-16T23:40:19.345Z,81.96
2022-11-16T23:43:04.428Z,82.50
2022-11-16T23:45:33.610Z,82.99
2022-11-16T23:48:01.424Z,83.25
2022-11-16T23:50:29.313Z,84.11
2022-11-16T23:52:57.068Z,84.29
2022-11-16T23:55:24.771Z,84.62
2022-11-16T23:57:52.493Z,85.06
